Geronimo — PD6553 — position and weather

sailwx.info

Track history (hours):
 
Tides and Currents Weather Stations Pressure Air Temp Water Temp Dewpoint Dewpoint Depression Visibility Wind Speed Wind Dir Waves Ship Positions

Geronimo

Last reported at 2017-Feb-21 18:22 UTC. Time now 2017-Feb-21 19:05 UTC.
Position N 18°23' W 064°33'.

Length 20 m; draft 2.9 m.

Type: Sailing vessel. MMSI: 244620501.

Date/timePositionNaut miles runAvg speedWind from/ knotsBaromVisibWave heightAir tempDewpointWater temp
2017-Feb-21 18:22N 18°23' W 064°33'5 4.7
2017-Feb-21 17:16N 18°26' W 064°28'3 4.4
2017-Feb-21 16:33N 18°26' W 064°32'0 0.0
2017-Feb-21 15:33N 18°26' W 064°32'0 0.0
2017-Feb-21 14:33N 18°26' W 064°32'0 0.0
2017-Feb-21 13:33N 18°26' W 064°32'0 0.0
2017-Feb-21 12:33N 18°26' W 064°32'0 0.0
2017-Feb-21 11:33N 18°26' W 064°32'0 0.0
2017-Feb-21 10:33N 18°26' W 064°32'0 0.0
2017-Feb-21 09:33N 18°26' W 064°32'4 3.6
2017-Feb-21 08:33N 18°26' W 064°28'1 1.1
2017-Feb-21 07:33N 18°26' W 064°27'0 0.0
2017-Feb-21 06:33N 18°26' W 064°27'0 0.0
2017-Feb-21 05:33N 18°26' W 064°27'0 0.0
2017-Feb-21 04:21N 18°26' W 064°27'0 0.0
2017-Feb-21 03:31N 18°26' W 064°27'0 0.0
2017-Feb-21 02:33N 18°26' W 064°27'0 0.0
2017-Feb-21 01:33N 18°26' W 064°27'0 0.0
2017-Feb-21 00:33N 18°26' W 064°27'0 0.0
2017-Feb-20 23:33N 18°26' W 064°27'0 0.0
2017-Feb-20 22:33N 18°26' W 064°27'0 0.0
2017-Feb-20 21:33N 18°26' W 064°27'0 0.0
2017-Feb-20 20:33N 18°26' W 064°27'2 2.4
2017-Feb-20 19:33N 18°26' W 064°29'77 1.5
2017-Feb-18 16:12N 18°10' W 063°10'4 6.3
2017-Feb-18 15:33N 18°06' W 063°10'6 5.6
2017-Feb-18 14:29N 18°02' W 063°06'0 0.1
2017-Feb-18 13:32N 18°02' W 063°06'0 0.3
2017-Feb-18 12:31N 18°02' W 063°05'0 0.1
2017-Feb-18 11:31N 18°02' W 063°05'0 0.0
2017-Feb-18 10:26N 18°02' W 063°05'0 0.0
2017-Feb-18 09:19N 18°02' W 063°05'0 0.0
2017-Feb-18 08:24N 18°02' W 063°05'0 0.0
2017-Feb-18 07:27N 18°02' W 063°05'0 0.0
2017-Feb-18 06:31N 18°02' W 063°05'0 0.0
2017-Feb-18 05:33N 18°02' W 063°05'0 0.0
2017-Feb-18 04:16N 18°02' W 063°05'0 0.0
2017-Feb-18 03:26N 18°02' W 063°05'0 0.0
2017-Feb-18 02:15N 18°02' W 063°05'0 0.0
2017-Feb-18 01:32N 18°02' W 063°05'0 0.0
2017-Feb-17 23:14N 18°02' W 063°05'0 0.0
2017-Feb-17 22:31N 18°02' W 063°05'0 0.0
2017-Feb-17 19:28N 18°02' W 063°05'0 0.0
2017-Feb-17 18:24N 18°02' W 063°05'0 0.0
2017-Feb-17 17:20N 18°02' W 063°05'0 0.0
2017-Feb-17 16:16N 18°02' W 063°05'0 0.0
2017-Feb-17 15:15N 18°02' W 063°05'0 0.0
2017-Feb-17 14:22N 18°02' W 063°05'0 0.0
2017-Feb-17 13:30N 18°02' W 063°05'0 0.0
2017-Feb-17 12:29N 18°02' W 063°05'0 0.0
2017-Feb-17 11:29N 18°02' W 063°05'0 0.0
2017-Feb-17 10:32N 18°02' W 063°05'0 0.0
2017-Feb-17 09:31N 18°02' W 063°05'0 0.0
2017-Feb-17 08:31N 18°02' W 063°05'0 0.0
2017-Feb-17 07:13N 18°02' W 063°05'0 0.0
2017-Feb-17 06:22N 18°02' W 063°05'0 0.0
2017-Feb-17 05:22N 18°02' W 063°05'0 0.0
2017-Feb-17 04:23N 18°02' W 063°05'0 0.0
2017-Feb-17 03:26N 18°02' W 063°05'0 0.0
2017-Feb-17 01:31N 18°02' W 063°05'0 0.0
2017-Feb-16 21:26N 18°02' W 063°05'1 1.0
2017-Feb-16 20:31N 18°02' W 063°06'4 3.9
2017-Feb-16 19:24N 18°04' W 063°10'5 0.9
2017-Feb-16 14:30N 18°09' W 063°11'4 4.1
2017-Feb-16 13:26N 18°05' W 063°08'3 3.1
2017-Feb-16 12:32N 18°04' W 063°06'0 0.0
2017-Feb-16 10:22N 18°04' W 063°06'0 0.0
2017-Feb-16 09:07N 18°04' W 063°06'0 0.0
2017-Feb-16 07:29N 18°04' W 063°06'0 0.0
2017-Feb-16 06:28N 18°04' W 063°06'0 0.0
2017-Feb-16 05:16N 18°04' W 063°06'0 0.0
2017-Feb-16 04:22N 18°04' W 063°06'0 0.0
2017-Feb-16 03:27N 18°04' W 063°06'0 0.0
2017-Feb-16 02:28N 18°04' W 063°06'0 0.0
2017-Feb-16 00:30N 18°04' W 063°06'0 0.0
2017-Feb-15 23:27N 18°04' W 063°06'0 0.0
2017-Feb-15 22:32N 18°04' W 063°06'0 0.0
2017-Feb-15 21:22N 18°04' W 063°06'0 0.0
2017-Feb-15 20:23N 18°04' W 063°06'0 0.0
2017-Feb-15 19:24N 18°04' W 063°06'0 0.0
2017-Feb-15 18:12N 18°04' W 063°06'0 0.0
2017-Feb-15 17:22N 18°04' W 063°06'0 0.0
2017-Feb-15 16:32N 18°04' W 063°06'0 0.0
2017-Feb-15 15:26N 18°04' W 063°06'0 0.0
2017-Feb-15 14:30N 18°04' W 063°06'0 0.0
2017-Feb-15 13:28N 18°04' W 063°06'0 0.0
2017-Feb-15 12:25N 18°04' W 063°06'0 0.0
2017-Feb-15 11:27N 18°04' W 063°06'0 0.0
2017-Feb-15 10:31N 18°04' W 063°06'0 0.0
2017-Feb-15 09:09N 18°04' W 063°06'0 0.0
2017-Feb-15 08:31N 18°04' W 063°06'0 0.0
2017-Feb-15 07:30N 18°04' W 063°06'0 0.0
2017-Feb-15 06:16N 18°04' W 063°06'0 0.0
2017-Feb-15 03:32N 18°04' W 063°06'0 0.0
2017-Feb-15 02:23N 18°04' W 063°06'0 0.0
2017-Feb-15 01:33N 18°04' W 063°06'0 0.0
2017-Feb-14 22:08N 18°04' W 063°06'0 0.0
2017-Feb-14 21:24N 18°04' W 063°06'0 0.0
2017-Feb-14 19:21N 18°04' W 063°06'0 0.2
2017-Feb-14 17:33N 18°04' W 063°05'0 0.1
2017-Feb-14 15:33N 18°04' W 063°06'0 0.0
2017-Feb-14 14:32N 18°04' W 063°06'0 0.0
2017-Feb-14 13:28N 18°04' W 063°06'0 0.0
2017-Feb-14 12:33N 18°04' W 063°06'0 0.0
2017-Feb-14 11:23N 18°04' W 063°06'0 0.0
2017-Feb-14 10:22N 18°04' W 063°06'0 0.0
2017-Feb-14 09:23N 18°04' W 063°06'0 0.0
2017-Feb-14 08:33N 18°04' W 063°06'0 0.0
2017-Feb-14 07:21N 18°04' W 063°06'0 0.0
2017-Feb-14 06:32N 18°04' W 063°06'0 0.0
2017-Feb-14 05:28N 18°04' W 063°06'0 0.0
2017-Feb-14 04:17N 18°04' W 063°06'0 0.0
2017-Feb-14 03:23N 18°04' W 063°06'0 0.0
2017-Feb-14 01:16N 18°04' W 063°06'0 0.0
2017-Feb-14 00:32N 18°04' W 063°06'0 0.0
2017-Feb-13 23:31N 18°04' W 063°06'0 0.0
2017-Feb-13 22:30N 18°04' W 063°06'0 0.0
2017-Feb-13 21:32N 18°04' W 063°06'0 0.0
2017-Feb-13 20:32N 18°04' W 063°06'0 0.0
2017-Feb-13 19:28N 18°04' W 063°06'0 0.0
2017-Feb-13 18:21N 18°04' W 063°06'0 0.0
2017-Feb-13 17:29N 18°04' W 063°06'0 0.0
2017-Feb-13 16:26N 18°04' W 063°06'0 0.0
2017-Feb-13 15:18N 18°04' W 063°06'0 0.0
2017-Feb-13 14:18N 18°04' W 063°06'0 0.0
2017-Feb-13 13:28N 18°04' W 063°06'0 0.0
2017-Feb-13 12:32N 18°04' W 063°06'0 0.0
2017-Feb-13 10:24N 18°04' W 063°06'0 0.0
2017-Feb-13 09:26N 18°04' W 063°06'0 0.0
2017-Feb-13 08:33N 18°04' W 063°06'0 0.0
2017-Feb-13 07:24N 18°04' W 063°06'0 0.0
2017-Feb-13 06:25N 18°04' W 063°06'0 0.0
2017-Feb-13 05:15N 18°04' W 063°06'0 0.0
2017-Feb-13 03:23N 18°04' W 063°06'0 0.0
2017-Feb-13 02:28N 18°04' W 063°06'0 0.0
2017-Feb-13 01:25N 18°04' W 063°06'0 0.0
2017-Feb-13 00:33N 18°04' W 063°06'0 0.0
2017-Feb-12 23:31N 18°04' W 063°06'0 0.0
2017-Feb-12 22:06N 18°04' W 063°06'0 0.0
2017-Feb-12 21:29N 18°04' W 063°06'0 0.0
2017-Feb-12 20:22N 18°04' W 063°06'0 0.0
2017-Feb-12 19:20N 18°04' W 063°06'0 0.0
2017-Feb-12 18:33N 18°04' W 063°06'0 0.0
2017-Feb-12 17:23N 18°04' W 063°06'0 0.0
2017-Feb-12 16:32N 18°04' W 063°06'0 0.0
2017-Feb-12 15:33N 18°04' W 063°06'0 0.0
2017-Feb-12 14:29N 18°04' W 063°06'0 0.0
2017-Feb-12 12:29N 18°04' W 063°06'0 0.0
2017-Feb-12 11:24N 18°04' W 063°06'0 0.0
2017-Feb-12 09:33N 18°04' W 063°06'0 0.0
2017-Feb-12 08:33N 18°04' W 063°06'0 0.0
2017-Feb-12 07:33N 18°04' W 063°06'0 0.0
2017-Feb-12 06:17N 18°04' W 063°06'0 0.0
2017-Feb-12 05:14N 18°04' W 063°06'0 0.0
2017-Feb-12 04:26N 18°04' W 063°06'0 0.0
2017-Feb-12 03:19N 18°04' W 063°06'0 0.0
2017-Feb-12 02:27N 18°04' W 063°06'0 0.0
2017-Feb-12 01:31N 18°04' W 063°06'0 0.0
2017-Feb-12 00:27N 18°04' W 063°06'0 0.0
2017-Feb-11 23:25N 18°04' W 063°06'0 0.0
2017-Feb-11 22:21N 18°04' W 063°06'0 0.0
2017-Feb-11 21:20N 18°04' W 063°06'0 0.0
2017-Feb-11 19:25N 18°04' W 063°06'0 0.0
2017-Feb-11 18:29N 18°04' W 063°06'  
Track history (hours):
 
Tides and Currents Weather Stations Pressure Air Temp Water Temp Dewpoint Dewpoint Depression Visibility Wind Speed Wind Dir Waves Ship Positions

Geronimo

Last reported at 2017-Feb-21 18:22 UTC. Time now 2017-Feb-21 19:05 UTC.
Position N 18°23' W 064°33'.

Length 20 m; draft 2.9 m.

Type: Sailing vessel. MMSI: 244620501.

Date/timePositionNaut miles runAvg speedWind from/ knotsBaromVisibWave heightAir tempDewpointWater temp
2017-Feb-21 18:22N 18°23' W 064°33'5 4.7
2017-Feb-21 17:16N 18°26' W 064°28'3 4.4
2017-Feb-21 16:33N 18°26' W 064°32'0 0.0
2017-Feb-21 15:33N 18°26' W 064°32'0 0.0
2017-Feb-21 14:33N 18°26' W 064°32'0 0.0
2017-Feb-21 13:33N 18°26' W 064°32'0 0.0
2017-Feb-21 12:33N 18°26' W 064°32'0 0.0
2017-Feb-21 11:33N 18°26' W 064°32'0 0.0
2017-Feb-21 10:33N 18°26' W 064°32'0 0.0
2017-Feb-21 09:33N 18°26' W 064°32'4 3.6
2017-Feb-21 08:33N 18°26' W 064°28'1 1.1
2017-Feb-21 07:33N 18°26' W 064°27'0 0.0
2017-Feb-21 06:33N 18°26' W 064°27'0 0.0
2017-Feb-21 05:33N 18°26' W 064°27'0 0.0
2017-Feb-21 04:21N 18°26' W 064°27'0 0.0
2017-Feb-21 03:31N 18°26' W 064°27'0 0.0
2017-Feb-21 02:33N 18°26' W 064°27'0 0.0
2017-Feb-21 01:33N 18°26' W 064°27'0 0.0
2017-Feb-21 00:33N 18°26' W 064°27'0 0.0
2017-Feb-20 23:33N 18°26' W 064°27'0 0.0
2017-Feb-20 22:33N 18°26' W 064°27'0 0.0
2017-Feb-20 21:33N 18°26' W 064°27'0 0.0
2017-Feb-20 20:33N 18°26' W 064°27'2 2.4
2017-Feb-20 19:33N 18°26' W 064°29'77 1.5
2017-Feb-18 16:12N 18°10' W 063°10'4 6.3
2017-Feb-18 15:33N 18°06' W 063°10'6 5.6
2017-Feb-18 14:29N 18°02' W 063°06'0 0.1
2017-Feb-18 13:32N 18°02' W 063°06'0 0.3
2017-Feb-18 12:31N 18°02' W 063°05'0 0.1
2017-Feb-18 11:31N 18°02' W 063°05'0 0.0
2017-Feb-18 10:26N 18°02' W 063°05'0 0.0
2017-Feb-18 09:19N 18°02' W 063°05'0 0.0
2017-Feb-18 08:24N 18°02' W 063°05'0 0.0
2017-Feb-18 07:27N 18°02' W 063°05'0 0.0
2017-Feb-18 06:31N 18°02' W 063°05'0 0.0
2017-Feb-18 05:33N 18°02' W 063°05'0 0.0
2017-Feb-18 04:16N 18°02' W 063°05'0 0.0
2017-Feb-18 03:26N 18°02' W 063°05'0 0.0
2017-Feb-18 02:15N 18°02' W 063°05'0 0.0
2017-Feb-18 01:32N 18°02' W 063°05'0 0.0
2017-Feb-17 23:14N 18°02' W 063°05'0 0.0
2017-Feb-17 22:31N 18°02' W 063°05'0 0.0
2017-Feb-17 19:28N 18°02' W 063°05'0 0.0
2017-Feb-17 18:24N 18°02' W 063°05'0 0.0
2017-Feb-17 17:20N 18°02' W 063°05'0 0.0
2017-Feb-17 16:16N 18°02' W 063°05'0 0.0
2017-Feb-17 15:15N 18°02' W 063°05'0 0.0
2017-Feb-17 14:22N 18°02' W 063°05'0 0.0
2017-Feb-17 13:30N 18°02' W 063°05'0 0.0
2017-Feb-17 12:29N 18°02' W 063°05'0 0.0
2017-Feb-17 11:29N 18°02' W 063°05'0 0.0
2017-Feb-17 10:32N 18°02' W 063°05'0 0.0
2017-Feb-17 09:31N 18°02' W 063°05'0 0.0
2017-Feb-17 08:31N 18°02' W 063°05'0 0.0
2017-Feb-17 07:13N 18°02' W 063°05'0 0.0
2017-Feb-17 06:22N 18°02' W 063°05'0 0.0
2017-Feb-17 05:22N 18°02' W 063°05'0 0.0
2017-Feb-17 04:23N 18°02' W 063°05'0 0.0
2017-Feb-17 03:26N 18°02' W 063°05'0 0.0
2017-Feb-17 01:31N 18°02' W 063°05'0 0.0
2017-Feb-16 21:26N 18°02' W 063°05'1 1.0
2017-Feb-16 20:31N 18°02' W 063°06'4 3.9
2017-Feb-16 19:24N 18°04' W 063°10'5 0.9
2017-Feb-16 14:30N 18°09' W 063°11'4 4.1
2017-Feb-16 13:26N 18°05' W 063°08'3 3.1
2017-Feb-16 12:32N 18°04' W 063°06'0 0.0
2017-Feb-16 10:22N 18°04' W 063°06'0 0.0
2017-Feb-16 09:07N 18°04' W 063°06'0 0.0
2017-Feb-16 07:29N 18°04' W 063°06'0 0.0
2017-Feb-16 06:28N 18°04' W 063°06'0 0.0
2017-Feb-16 05:16N 18°04' W 063°06'0 0.0
2017-Feb-16 04:22N 18°04' W 063°06'0 0.0
2017-Feb-16 03:27N 18°04' W 063°06'0 0.0
2017-Feb-16 02:28N 18°04' W 063°06'0 0.0
2017-Feb-16 00:30N 18°04' W 063°06'0 0.0
2017-Feb-15 23:27N 18°04' W 063°06'0 0.0
2017-Feb-15 22:32N 18°04' W 063°06'0 0.0
2017-Feb-15 21:22N 18°04' W 063°06'0 0.0
2017-Feb-15 20:23N 18°04' W 063°06'0 0.0
2017-Feb-15 19:24N 18°04' W 063°06'0 0.0
2017-Feb-15 18:12N 18°04' W 063°06'0 0.0
2017-Feb-15 17:22N 18°04' W 063°06'0 0.0
2017-Feb-15 16:32N 18°04' W 063°06'0 0.0
2017-Feb-15 15:26N 18°04' W 063°06'0 0.0
2017-Feb-15 14:30N 18°04' W 063°06'0 0.0
2017-Feb-15 13:28N 18°04' W 063°06'0 0.0
2017-Feb-15 12:25N 18°04' W 063°06'0 0.0
2017-Feb-15 11:27N 18°04' W 063°06'0 0.0
2017-Feb-15 10:31N 18°04' W 063°06'0 0.0
2017-Feb-15 09:09N 18°04' W 063°06'0 0.0
2017-Feb-15 08:31N 18°04' W 063°06'0 0.0
2017-Feb-15 07:30N 18°04' W 063°06'0 0.0
2017-Feb-15 06:16N 18°04' W 063°06'0 0.0
2017-Feb-15 03:32N 18°04' W 063°06'0 0.0
2017-Feb-15 02:23N 18°04' W 063°06'0 0.0
2017-Feb-15 01:33N 18°04' W 063°06'0 0.0
2017-Feb-14 22:08N 18°04' W 063°06'0 0.0
2017-Feb-14 21:24N 18°04' W 063°06'0 0.0
2017-Feb-14 19:21N 18°04' W 063°06'0 0.2
2017-Feb-14 17:33N 18°04' W 063°05'0 0.1
2017-Feb-14 15:33N 18°04' W 063°06'0 0.0
2017-Feb-14 14:32N 18°04' W 063°06'0 0.0
2017-Feb-14 13:28N 18°04' W 063°06'0 0.0
2017-Feb-14 12:33N 18°04' W 063°06'0 0.0
2017-Feb-14 11:23N 18°04' W 063°06'0 0.0
2017-Feb-14 10:22N 18°04' W 063°06'0 0.0
2017-Feb-14 09:23N 18°04' W 063°06'0 0.0
2017-Feb-14 08:33N 18°04' W 063°06'0 0.0
2017-Feb-14 07:21N 18°04' W 063°06'0 0.0
2017-Feb-14 06:32N 18°04' W 063°06'0 0.0
2017-Feb-14 05:28N 18°04' W 063°06'0 0.0
2017-Feb-14 04:17N 18°04' W 063°06'0 0.0
2017-Feb-14 03:23N 18°04' W 063°06'0 0.0
2017-Feb-14 01:16N 18°04' W 063°06'0 0.0
2017-Feb-14 00:32N 18°04' W 063°06'0 0.0
2017-Feb-13 23:31N 18°04' W 063°06'0 0.0
2017-Feb-13 22:30N 18°04' W 063°06'0 0.0
2017-Feb-13 21:32N 18°04' W 063°06'0 0.0
2017-Feb-13 20:32N 18°04' W 063°06'0 0.0
2017-Feb-13 19:28N 18°04' W 063°06'0 0.0
2017-Feb-13 18:21N 18°04' W 063°06'0 0.0
2017-Feb-13 17:29N 18°04' W 063°06'0 0.0
2017-Feb-13 16:26N 18°04' W 063°06'0 0.0
2017-Feb-13 15:18N 18°04' W 063°06'0 0.0
2017-Feb-13 14:18N 18°04' W 063°06'0 0.0
2017-Feb-13 13:28N 18°04' W 063°06'0 0.0
2017-Feb-13 12:32N 18°04' W 063°06'0 0.0
2017-Feb-13 10:24N 18°04' W 063°06'0 0.0
2017-Feb-13 09:26N 18°04' W 063°06'0 0.0
2017-Feb-13 08:33N 18°04' W 063°06'0 0.0
2017-Feb-13 07:24N 18°04' W 063°06'0 0.0
2017-Feb-13 06:25N 18°04' W 063°06'0 0.0
2017-Feb-13 05:15N 18°04' W 063°06'0 0.0
2017-Feb-13 03:23N 18°04' W 063°06'0 0.0
2017-Feb-13 02:28N 18°04' W 063°06'0 0.0
2017-Feb-13 01:25N 18°04' W 063°06'0 0.0
2017-Feb-13 00:33N 18°04' W 063°06'0 0.0
2017-Feb-12 23:31N 18°04' W 063°06'0 0.0
2017-Feb-12 22:06N 18°04' W 063°06'0 0.0
2017-Feb-12 21:29N 18°04' W 063°06'0 0.0
2017-Feb-12 20:22N 18°04' W 063°06'0 0.0
2017-Feb-12 19:20N 18°04' W 063°06'0 0.0
2017-Feb-12 18:33N 18°04' W 063°06'0 0.0
2017-Feb-12 17:23N 18°04' W 063°06'0 0.0
2017-Feb-12 16:32N 18°04' W 063°06'0 0.0
2017-Feb-12 15:33N 18°04' W 063°06'0 0.0
2017-Feb-12 14:29N 18°04' W 063°06'0 0.0
2017-Feb-12 12:29N 18°04' W 063°06'0 0.0
2017-Feb-12 11:24N 18°04' W 063°06'0 0.0
2017-Feb-12 09:33N 18°04' W 063°06'0 0.0
2017-Feb-12 08:33N 18°04' W 063°06'0 0.0
2017-Feb-12 07:33N 18°04' W 063°06'0 0.0
2017-Feb-12 06:17N 18°04' W 063°06'0 0.0
2017-Feb-12 05:14N 18°04' W 063°06'0 0.0
2017-Feb-12 04:26N 18°04' W 063°06'0 0.0
2017-Feb-12 03:19N 18°04' W 063°06'0 0.0
2017-Feb-12 02:27N 18°04' W 063°06'0 0.0
2017-Feb-12 01:31N 18°04' W 063°06'0 0.0
2017-Feb-12 00:27N 18°04' W 063°06'0 0.0
2017-Feb-11 23:25N 18°04' W 063°06'0 0.0
2017-Feb-11 22:21N 18°04' W 063°06'0 0.0
2017-Feb-11 21:20N 18°04' W 063°06'0 0.0
2017-Feb-11 19:25N 18°04' W 063°06'0 0.0
2017-Feb-11 18:29N 18°04' W 063°06'  

Dump ship's entire track history